createdAt,value
2018-09-14T00:01:10.406Z,94.10
2018-09-14T00:03:38.807Z,94.30
2018-09-14T00:06:06.571Z,94.20
2018-09-14T00:08:34.250Z,94.10
2018-09-14T00:11:02.121Z,94.10
2018-09-14T00:13:29.769Z,94.20
2018-09-14T00:15:57.773Z,94.30
2018-09-14T00:18:25.408Z,94.30
2018-09-14T00:20:53.071Z,94.30
2018-09-14T00:23:20.728Z,94.60
2018-09-14T00:25:48.419Z,94.70
2018-09-14T00:28:16.067Z,94.80
2018-09-14T00:30:43.727Z,95.20
2018-09-14T00:33:11.415Z,95.20
2018-09-14T00:35:39.083Z,95.50
2018-09-14T00:38:06.706Z,95.40
2018-09-14T00:40:34.439Z,95.70
2018-09-14T00:43:02.127Z,96.10
2018-09-14T00:45:29.824Z,95.90
2018-09-14T00:47:57.447Z,95.90
2018-09-14T00:50:25.154Z,95.90
2018-09-14T00:52:52.809Z,96.20
2018-09-14T00:55:20.458Z,96.10
2018-09-14T00:57:48.119Z,96.00
2018-09-14T01:00:15.906Z,96.10
2018-09-14T01:02:43.511Z,96.00
2018-09-14T01:05:11.127Z,96.10
2018-09-14T01:07:39.111Z,96.20
2018-09-14T01:10:07.170Z,96.20
2018-09-14T01:12:34.834Z,96.20
2018-09-14T01:15:02.813Z,96.20
2018-09-14T01:17:30.588Z,96.50
2018-09-14T01:19:58.262Z,96.40
2018-09-14T01:22:25.921Z,96.30
2018-09-14T01:24:53.582Z,96.30
2018-09-14T01:27:21.258Z,96.00
2018-09-14T01:29:48.951Z,96.10
2018-09-14T01:32:16.654Z,96.10
2018-09-14T01:34:44.397Z,95.90
2018-09-14T01:37:12.098Z,96.20
2018-09-14T01:39:39.757Z,96.30
2018-09-14T01:42:07.597Z,96.40
2018-09-14T01:44:35.219Z,96.40
2018-09-14T01:47:03.300Z,96.20
2018-09-14T01:49:30.958Z,96.10
2018-09-14T01:51:58.634Z,96.10
2018-09-14T01:54:26.292Z,96.40
2018-09-14T01:56:54.026Z,96.30
2018-09-14T01:59:21.712Z,96.50
2018-09-14T02:01:49.498Z,96.40
2018-09-14T02:04:17.930Z,96.60
2018-09-14T02:06:45.579Z,96.30
2018-09-14T02:09:13.179Z,96.20
2018-09-14T02:11:40.814Z,96.00
2018-09-14T02:14:08.494Z,96.30
2018-09-14T02:16:36.185Z,96.10
2018-09-14T02:19:03.870Z,96.30
2018-09-14T02:21:31.591Z,96.50
2018-09-14T02:23:59.298Z,96.20
2018-09-14T02:26:27.007Z,96.20
2018-09-14T02:28:56.057Z,96.20
2018-09-14T02:31:24.725Z,96.10
2018-09-14T02:33:52.396Z,96.10
2018-09-14T02:36:20.107Z,96.40
2018-09-14T02:38:47.801Z,96.50
2018-09-14T02:41:15.410Z,96.30
2018-09-14T02:43:43.038Z,96.00
2018-09-14T02:46:10.598Z,95.60
2018-09-14T02:48:38.207Z,95.70
2018-09-14T02:51:06.020Z,95.70
2018-09-14T02:53:33.742Z,95.90
2018-09-14T02:56:01.463Z,95.90
2018-09-14T02:58:29.233Z,95.90
2018-09-14T03:00:57.162Z,95.80
2018-09-14T03:03:24.843Z,95.80
2018-09-14T03:05:52.468Z,95.80
2018-09-14T03:08:20.154Z,96.00
2018-09-14T03:10:47.814Z,96.20
2018-09-14T03:13:15.515Z,96.30
2018-09-14T03:15:43.070Z,96.20
2018-09-14T03:18:10.796Z,96.20
2018-09-14T03:20:38.672Z,96.20
2018-09-14T03:23:06.383Z,95.90
2018-09-14T03:25:34.059Z,96.00
2018-09-14T03:28:01.735Z,95.90
2018-09-14T03:30:29.445Z,96.20
2018-09-14T03:32:57.117Z,96.00
2018-09-14T03:35:24.752Z,96.10
2018-09-14T03:37:52.336Z,96.10
2018-09-14T03:40:20.018Z,96.00
2018-09-14T03:42:47.645Z,95.70
2018-09-14T03:45:15.267Z,95.80
2018-09-14T03:47:42.955Z,95.90
2018-09-14T03:50:10.563Z,95.90
2018-09-14T03:52:38.195Z,95.80
2018-09-14T03:55:06.072Z,95.80
2018-09-14T03:57:33.744Z,96.00
2018-09-14T04:00:01.395Z,95.90
2018-09-14T04:02:29.135Z,96.20
2018-09-14T04:04:56.793Z,95.60
2018-09-14T04:07:25.418Z,95.70
2018-09-14T04:09:53.796Z,95.70
2018-09-14T04:12:22.687Z,95.80
2018-09-14T04:14:50.394Z,95.90
2018-09-14T04:17:18.035Z,96.10
2018-09-14T04:19:45.767Z,95.90
2018-09-14T04:22:13.466Z,96.10
2018-09-14T04:24:41.141Z,95.80
2018-09-14T04:27:08.878Z,96.10
2018-09-14T04:29:36.602Z,96.00
2018-09-14T04:32:04.323Z,95.80
2018-09-14T04:34:32.041Z,95.90
2018-09-14T04:36:59.709Z,95.90
2018-09-14T04:39:27.362Z,95.70
2018-09-14T04:41:55.045Z,95.60
2018-09-14T04:44:22.719Z,95.60
2018-09-14T04:46:50.414Z,95.60
2018-09-14T04:49:18.138Z,95.80
2018-09-14T04:51:45.751Z,95.90
2018-09-14T04:54:13.383Z,95.90
2018-09-14T04:56:41.035Z,96.00
2018-09-14T04:59:08.691Z,95.90
2018-09-14T05:01:36.364Z,95.90
2018-09-14T05:04:19.027Z,95.60
2018-09-14T05:06:46.840Z,95.70
2018-09-14T05:09:14.491Z,95.70
2018-09-14T05:11:42.180Z,95.50
2018-09-14T05:14:10.325Z,95.40
2018-09-14T05:16:37.988Z,95.60
2018-09-14T05:19:05.705Z,95.40
2018-09-14T05:21:33.378Z,95.30
2018-09-14T05:24:01.032Z,95.20
2018-09-14T05:26:28.660Z,95.30
2018-09-14T05:28:56.600Z,95.40
2018-09-14T05:31:24.290Z,95.20
2018-09-14T05:33:51.967Z,95.50
2018-09-14T05:36:19.662Z,95.20
2018-09-14T05:38:47.303Z,95.10
2018-09-14T05:41:14.990Z,94.90
2018-09-14T05:43:42.715Z,95.00
2018-09-14T05:46:10.311Z,94.90
2018-09-14T05:48:37.971Z,94.90
2018-09-14T05:51:05.774Z,94.90
2018-09-14T05:53:33.427Z,95.10
2018-09-14T05:56:01.084Z,95.00
2018-09-14T05:58:28.773Z,94.90
2018-09-14T06:00:56.536Z,94.90
2018-09-14T06:03:24.182Z,94.80
2018-09-14T06:05:51.815Z,94.70
2018-09-14T06:08:19.470Z,94.60
2018-09-14T06:10:47.300Z,94.70
2018-09-14T06:13:14.910Z,94.70
2018-09-14T06:15:42.655Z,94.60
2018-09-14T06:18:10.327Z,94.50
2018-09-14T06:20:38.034Z,94.40
2018-09-14T06:23:05.910Z,94.20
2018-09-14T06:25:33.615Z,94.00
2018-09-14T06:28:01.389Z,93.90
2018-09-14T06:30:29.103Z,94.00
2018-09-14T06:32:56.734Z,94.00
2018-09-14T06:35:24.410Z,93.50
2018-09-14T06:37:52.005Z,93.10
2018-09-14T06:40:19.883Z,92.50
2018-09-14T06:42:47.608Z,92.40
2018-09-14T06:45:15.241Z,92.40
2018-09-14T06:47:43.034Z,92.40
2018-09-14T06:50:10.637Z,92.40
2018-09-14T06:52:38.257Z,92.50
2018-09-14T06:55:06.020Z,92.20
2018-09-14T06:57:33.662Z,92.60
2018-09-14T07:00:01.375Z,92.60
2018-09-14T07:02:29.357Z,92.60
2018-09-14T07:04:57.267Z,92.60
2018-09-14T07:07:25.245Z,92.70
2018-09-14T07:09:53.021Z,92.60
2018-09-14T07:12:20.692Z,92.60
2018-09-14T07:14:48.456Z,92.90
2018-09-14T07:17:16.101Z,92.90
2018-09-14T07:19:43.760Z,92.90
2018-09-14T07:22:11.485Z,92.80
2018-09-14T07:24:39.259Z,92.70
2018-09-14T07:27:06.923Z,92.60
2018-09-14T07:29:34.671Z,92.50
2018-09-14T07:32:02.342Z,92.50
2018-09-14T07:34:29.979Z,92.20
2018-09-14T07:36:57.674Z,92.30
2018-09-14T07:39:25.281Z,92.10
2018-09-14T07:41:53.245Z,91.60
2018-09-14T07:44:20.859Z,91.40
2018-09-14T07:46:48.562Z,91.00
2018-09-14T07:49:16.295Z,90.60
2018-09-14T07:51:44.282Z,90.20
2018-09-14T07:54:11.905Z,89.30
2018-09-14T07:56:39.519Z,87.60
2018-09-14T07:59:07.158Z,85.00
2018-09-14T08:01:35.434Z,82.10
2018-09-14T08:04:03.443Z,80.70
2018-09-14T08:06:31.087Z,80.10
2018-09-14T08:08:58.873Z,79.10
2018-09-14T08:11:26.535Z,79.30
2018-09-14T08:13:54.285Z,80.30
2018-09-14T08:16:22.235Z,81.90
2018-09-14T08:18:49.886Z,82.00
2018-09-14T08:21:17.658Z,83.10
2018-09-14T08:23:45.299Z,85.40
2018-09-14T08:26:13.129Z,86.10
2018-09-14T08:28:42.491Z,86.40
2018-09-14T08:31:10.209Z,87.50
2018-09-14T08:33:37.862Z,87.60
2018-09-14T08:36:05.587Z,88.00
2018-09-14T08:38:33.250Z,87.50
2018-09-14T08:41:00.961Z,88.40
2018-09-14T08:43:28.651Z,88.00
2018-09-14T08:45:56.382Z,88.20
2018-09-14T08:48:24.010Z,88.50
2018-09-14T08:50:51.670Z,88.20
2018-09-14T08:53:19.530Z,87.80
2018-09-14T08:55:47.213Z,85.40
2018-09-14T08:58:14.944Z,80.60
2018-09-14T09:00:42.673Z,78.50
2018-09-14T09:03:10.360Z,77.80
2018-09-14T09:05:38.082Z,78.20
2018-09-14T09:08:05.840Z,78.60
2018-09-14T09:10:33.495Z,79.50
2018-09-14T09:13:01.172Z,80.50
2018-09-14T09:15:28.859Z,81.60
2018-09-14T09:17:56.441Z,82.70
2018-09-14T09:20:24.134Z,83.60
2018-09-14T09:22:51.878Z,83.50
2018-09-14T09:25:19.586Z,83.20
2018-09-14T09:27:47.305Z,82.60
2018-09-14T09:30:14.938Z,82.50
2018-09-14T09:32:42.588Z,81.50
2018-09-14T09:35:10.209Z,80.90
2018-09-14T09:37:37.935Z,80.30
2018-09-14T09:40:05.663Z,79.90
2018-09-14T09:42:33.655Z,79.80
2018-09-14T09:47:43.342Z,79.80
2018-09-14T09:50:11.083Z,76.80
2018-09-14T09:52:38.809Z,75.80
2018-09-14T09:55:06.572Z,75.00
2018-09-14T09:57:34.358Z,74.60
2018-09-14T10:00:02.084Z,74.30
2018-09-14T10:02:35.370Z,74.00
2018-09-14T10:05:08.635Z,73.80
2018-09-14T10:07:36.306Z,74.70
2018-09-14T10:10:04.111Z,76.00
2018-09-14T10:12:31.810Z,77.50
2018-09-14T10:14:59.499Z,78.20
2018-09-14T10:17:27.177Z,79.00
2018-09-14T10:19:54.927Z,80.00
2018-09-14T10:22:22.618Z,80.10
2018-09-14T10:24:50.339Z,79.50
2018-09-14T10:27:17.995Z,78.80
2018-09-14T10:29:45.713Z,77.10
2018-09-14T10:32:13.523Z,76.30
2018-09-14T10:34:41.231Z,75.80
2018-09-14T10:37:08.983Z,74.50
2018-09-14T10:39:36.656Z,74.50
2018-09-14T10:42:04.364Z,75.10
2018-09-14T10:44:32.025Z,74.60
2018-09-14T10:46:59.730Z,74.20
2018-09-14T10:49:27.279Z,74.20
2018-09-14T10:51:54.999Z,74.40
2018-09-14T10:54:22.730Z,74.10
2018-09-14T10:56:50.384Z,74.00
2018-09-14T10:59:18.044Z,74.10
2018-09-14T11:01:45.715Z,73.50
2018-09-14T11:04:13.435Z,74.50
2018-09-14T11:06:41.151Z,75.20
2018-09-14T11:09:10.695Z,75.30
2018-09-14T11:11:38.364Z,74.90
2018-09-14T11:14:06.143Z,75.10
2018-09-14T11:16:33.903Z,74.90
2018-09-14T11:20:37.894Z,74.60
2018-09-14T11:23:10.834Z,74.30
2018-09-14T11:25:38.635Z,72.70
2018-09-14T11:28:06.611Z,72.80
2018-09-14T11:30:34.461Z,72.40
2018-09-14T11:33:02.689Z,72.10
2018-09-14T11:35:30.618Z,71.30
2018-09-14T11:37:59.361Z,69.10
2018-09-14T11:40:27.141Z,70.70
2018-09-14T11:42:55.059Z,70.00
2018-09-14T11:45:23.024Z,70.30
2018-09-14T11:47:50.863Z,69.60
2018-09-14T11:50:18.710Z,69.40
2018-09-14T11:52:46.502Z,70.10
2018-09-14T11:55:14.331Z,70.80
2018-09-14T11:57:42.123Z,73.80
2018-09-14T12:00:09.919Z,75.60
2018-09-14T12:02:38.454Z,75.10
2018-09-14T12:05:06.662Z,76.30
2018-09-14T12:07:36.486Z,76.60
2018-09-14T12:10:04.607Z,75.90
2018-09-14T12:12:33.622Z,76.40
2018-09-14T12:15:01.474Z,76.30
2018-09-14T12:17:31.496Z,76.50
2018-09-14T12:19:59.418Z,77.20
2018-09-14T12:22:27.215Z,76.60
2018-09-14T12:24:55.323Z,75.40
2018-09-14T12:27:23.344Z,74.80
2018-09-14T12:29:51.328Z,73.80
2018-09-14T12:32:19.301Z,74.60
2018-09-14T12:34:48.202Z,75.00
2018-09-14T12:37:16.029Z,75.00
2018-09-14T12:39:45.965Z,75.20
2018-09-14T12:42:13.806Z,76.00
2018-09-14T12:44:41.655Z,76.40
2018-09-14T12:47:09.592Z,76.80
2018-09-14T12:49:37.697Z,76.40
2018-09-14T12:52:05.527Z,75.70
2018-09-14T12:54:33.370Z,75.70
2018-09-14T12:57:01.154Z,75.90
2018-09-14T12:59:29.095Z,76.40
2018-09-14T13:01:57.083Z,76.30
2018-09-14T13:04:25.172Z,75.60
2018-09-14T13:06:52.859Z,75.70
2018-09-14T13:09:20.708Z,75.30
2018-09-14T13:11:48.671Z,74.00
2018-09-14T13:14:20.335Z,73.30
2018-09-14T13:16:48.456Z,72.00
2018-09-14T13:19:16.250Z,72.80
2018-09-14T13:21:44.138Z,72.80
2018-09-14T13:24:12.191Z,72.10
2018-09-14T13:26:40.026Z,69.70
2018-09-14T13:29:07.960Z,67.80
2018-09-14T13:31:35.976Z,69.00
2018-09-14T13:34:04.099Z,68.50
2018-09-14T13:36:32.146Z,69.30
2018-09-14T13:39:00.012Z,69.10
2018-09-14T13:41:28.448Z,69.10
2018-09-14T13:43:56.355Z,69.40
2018-09-14T13:46:24.257Z,68.80
2018-09-14T13:48:52.194Z,67.70
2018-09-14T13:51:20.539Z,68.20
2018-09-14T13:53:48.422Z,68.00
2018-09-14T13:56:16.283Z,67.20
2018-09-14T13:58:47.825Z,67.10
2018-09-14T14:01:15.812Z,67.10
2018-09-14T14:03:43.715Z,65.80
2018-09-14T14:06:12.135Z,65.80
2018-09-14T14:08:40.051Z,65.80
2018-09-14T14:11:08.014Z,62.20
2018-09-14T14:13:35.939Z,61.70
2018-09-14T14:16:03.915Z,63.20
2018-09-14T14:18:31.724Z,63.50
2018-09-14T14:21:01.854Z,62.90
2018-09-14T14:23:31.906Z,62.80
2018-09-14T14:25:59.723Z,62.90
2018-09-14T14:28:28.418Z,63.50
2018-09-14T14:30:56.391Z,63.30
2018-09-14T14:33:24.419Z,63.90
2018-09-14T14:35:52.442Z,63.30
2018-09-14T14:38:20.441Z,64.00
2018-09-14T14:40:48.309Z,65.30
2018-09-14T14:43:16.144Z,65.30
2018-09-14T14:45:43.991Z,63.90
2018-09-14T14:48:11.855Z,64.30
2018-09-14T14:50:39.821Z,63.50
2018-09-14T14:53:07.851Z,63.30
2018-09-14T14:55:36.064Z,60.70
2018-09-14T14:58:03.995Z,60.70
2018-09-14T15:00:32.208Z,60.60
2018-09-14T15:03:01.298Z,60.40
2018-09-14T15:05:29.271Z,61.50
2018-09-14T15:07:57.803Z,62.70
2018-09-14T15:10:26.179Z,62.80
2018-09-14T15:12:54.404Z,62.50
2018-09-14T15:15:22.392Z,62.00
2018-09-14T15:17:50.421Z,61.20
2018-09-14T15:20:18.162Z,60.40
2018-09-14T15:22:46.155Z,60.80
2018-09-14T15:25:13.882Z,60.60
2018-09-14T15:27:41.769Z,60.40
2018-09-14T15:30:09.670Z,60.10
2018-09-14T15:32:37.506Z,60.60
2018-09-14T15:35:05.359Z,60.30
2018-09-14T15:37:33.277Z,60.00
2018-09-14T15:40:01.393Z,60.70
2018-09-14T15:42:29.378Z,60.80
2018-09-14T15:44:57.239Z,60.70
2018-09-14T15:47:25.380Z,59.90
2018-09-14T15:49:53.251Z,60.70
2018-09-14T15:52:22.599Z,60.90
2018-09-14T15:54:50.426Z,61.60
2018-09-14T15:57:18.325Z,62.00
2018-09-14T15:59:46.053Z,61.90
2018-09-14T16:02:13.852Z,62.40
2018-09-14T16:04:41.648Z,62.90
2018-09-14T16:07:09.522Z,62.60
2018-09-14T16:09:37.332Z,62.90
2018-09-14T16:12:05.183Z,63.10
2018-09-14T16:14:32.943Z,63.10
2018-09-14T16:17:00.731Z,63.60
2018-09-14T16:19:28.755Z,64.10
2018-09-14T16:21:56.630Z,63.60
2018-09-14T16:24:24.442Z,64.10
2018-09-14T16:26:52.371Z,64.30
2018-09-14T16:29:20.242Z,64.60
2018-09-14T16:31:48.038Z,64.50
2018-09-14T16:34:15.822Z,65.40
2018-09-14T16:36:43.593Z,66.50
2018-09-14T16:39:12.166Z,67.50
2018-09-14T16:41:40.355Z,67.90
2018-09-14T16:44:09.660Z,68.00
2018-09-14T16:46:38.228Z,68.20
2018-09-14T16:49:06.991Z,68.50
2018-09-14T16:51:35.441Z,68.90
2018-09-14T16:54:03.323Z,69.00
2018-09-14T16:56:31.157Z,69.30
2018-09-14T16:58:58.976Z,69.30
2018-09-14T17:01:26.818Z,69.50
2018-09-14T17:03:54.767Z,69.80
2018-09-14T17:06:22.700Z,70.20
2018-09-14T17:08:50.536Z,70.40
2018-09-14T17:11:19.143Z,70.60
2018-09-14T17:13:47.495Z,70.50
2018-09-14T17:16:15.308Z,71.00
2018-09-14T17:18:43.109Z,71.10
2018-09-14T17:21:11.005Z,70.60
2018-09-14T17:23:38.907Z,70.80
2018-09-14T17:26:09.516Z,70.90
2018-09-14T17:28:38.738Z,70.60
2018-09-14T17:31:06.627Z,70.80
2018-09-14T17:33:34.726Z,71.20
2018-09-14T17:36:02.480Z,71.40
2018-09-14T17:38:30.426Z,71.50
2018-09-14T17:40:58.408Z,71.60
2018-09-14T17:43:26.241Z,72.00
2018-09-14T17:45:54.231Z,71.90
2018-09-14T17:48:28.284Z,71.90
2018-09-14T17:50:57.322Z,72.00
2018-09-14T17:53:27.250Z,72.10
2018-09-14T17:55:58.184Z,72.00
2018-09-14T17:58:27.052Z,72.20
2018-09-14T18:00:55.422Z,72.40
2018-09-14T18:03:24.264Z,72.30
2018-09-14T18:05:53.441Z,72.60
2018-09-14T18:11:04.164Z,72.70
2018-09-14T18:13:31.863Z,72.70
2018-09-14T18:15:59.508Z,73.10
2018-09-14T18:18:28.744Z,73.20
2018-09-14T18:20:56.442Z,73.40
2018-09-14T18:23:24.386Z,74.10
2018-09-14T18:25:52.225Z,74.10
2018-09-14T18:28:20.706Z,74.60
2018-09-14T18:30:49.365Z,74.80
2018-09-14T18:33:17.230Z,75.00
2018-09-14T18:35:45.158Z,75.40
2018-09-14T18:38:12.829Z,75.80
2018-09-14T18:40:41.351Z,75.80
2018-09-14T18:43:09.260Z,76.30
2018-09-14T18:45:37.911Z,76.60
2018-09-14T18:48:06.375Z,76.70
2018-09-14T18:50:35.037Z,76.90
2018-09-14T18:53:03.594Z,77.20
2018-09-14T18:55:32.240Z,77.50
2018-09-14T18:58:00.481Z,77.80
2018-09-14T19:00:28.632Z,78.00
2018-09-14T19:02:56.993Z,78.10
2018-09-14T19:05:25.357Z,78.30
2018-09-14T19:07:53.874Z,78.60
2018-09-14T19:10:22.452Z,79.00
2018-09-14T19:12:51.288Z,78.90
2018-09-14T19:15:19.678Z,78.90
2018-09-14T19:17:47.708Z,78.90
2018-09-14T19:20:15.713Z,78.90
2018-09-14T19:22:44.442Z,79.10
2018-09-14T19:25:12.424Z,79.30
2018-09-14T19:27:40.266Z,79.30
2018-09-14T19:30:08.487Z,79.60
2018-09-14T19:32:36.920Z,79.50
2018-09-14T19:35:06.012Z,79.60
2018-09-14T19:37:34.329Z,79.90
2018-09-14T19:40:02.940Z,79.80
2018-09-14T19:42:31.961Z,80.30
2018-09-14T19:45:00.096Z,80.30
2018-09-14T19:47:28.901Z,80.40
2018-09-14T19:49:57.192Z,80.80
2018-09-14T19:52:25.350Z,81.30
2018-09-14T19:54:53.263Z,82.00
2018-09-14T19:57:21.848Z,82.50
2018-09-14T19:59:49.681Z,83.00
2018-09-14T20:02:17.708Z,83.50
2018-09-14T20:04:46.088Z,83.80
2018-09-14T20:07:14.215Z,83.90
2018-09-14T20:09:42.001Z,84.30
2018-09-14T20:12:10.131Z,84.60
2018-09-14T20:14:37.827Z,85.10
2018-09-14T20:17:06.492Z,85.40
2018-09-14T20:19:34.394Z,85.50
2018-09-14T20:22:03.899Z,85.60
2018-09-14T20:24:32.058Z,85.90
2018-09-14T20:26:59.864Z,86.00
2018-09-14T20:29:28.020Z,86.10
2018-09-14T20:31:55.748Z,86.30
2018-09-14T20:34:25.065Z,86.40
2018-09-14T20:36:52.918Z,86.10
2018-09-14T20:39:22.031Z,86.30
2018-09-14T20:41:54.873Z,86.30
2018-09-14T20:44:23.377Z,86.40
2018-09-14T20:46:52.062Z,86.00
2018-09-14T20:49:20.039Z,86.50
2018-09-14T20:51:49.135Z,86.60
2018-09-14T20:54:18.063Z,86.20
2018-09-14T20:56:46.099Z,85.90
2018-09-14T20:59:14.097Z,85.90
2018-09-14T21:01:42.100Z,85.50
2018-09-14T21:04:10.043Z,85.00
2018-09-14T21:06:39.159Z,84.60
2018-09-14T21:09:08.527Z,84.30
2018-09-14T21:11:36.372Z,83.90
2018-09-14T21:14:04.143Z,83.90
2018-09-14T21:16:31.931Z,83.60
2018-09-14T21:18:59.618Z,83.00
2018-09-14T21:21:27.295Z,82.80
2018-09-14T21:23:56.277Z,82.60
2018-09-14T21:26:24.130Z,82.20
2018-09-14T21:28:52.537Z,81.80
2018-09-14T21:31:20.506Z,81.30
2018-09-14T21:33:49.298Z,80.90
2018-09-14T21:36:16.976Z,80.00
2018-09-14T21:38:44.927Z,79.50
2018-09-14T21:41:12.608Z,78.40
2018-09-14T21:43:40.980Z,77.80
2018-09-14T21:46:08.856Z,77.50
2018-09-14T21:48:36.920Z,77.50
2018-09-14T21:51:04.684Z,78.10
2018-09-14T21:53:33.332Z,78.20
2018-09-14T21:56:01.546Z,78.90
2018-09-14T21:58:29.448Z,79.60
2018-09-14T22:01:02.745Z,80.90
2018-09-14T22:03:30.443Z,82.40
2018-09-14T22:05:58.249Z,83.20
2018-09-14T22:08:26.312Z,82.80
2018-09-14T22:10:55.019Z,82.00
2018-09-14T22:13:23.653Z,82.90
2018-09-14T22:15:51.354Z,81.20
2018-09-14T22:18:19.054Z,79.60
2018-09-14T22:20:46.791Z,79.40
2018-09-14T22:23:14.522Z,79.10
2018-09-14T22:25:42.164Z,79.10
2018-09-14T22:28:09.875Z,78.60
2018-09-14T22:30:37.545Z,77.90
2018-09-14T22:33:05.276Z,78.30
2018-09-14T22:35:32.944Z,77.50
2018-09-14T22:38:00.639Z,77.10
2018-09-14T22:40:28.345Z,76.80
2018-09-14T22:42:56.039Z,76.10
2018-09-14T22:45:23.720Z,75.90
2018-09-14T22:47:51.455Z,76.50
2018-09-14T22:50:19.152Z,75.50
2018-09-14T22:52:51.147Z,75.50
2018-09-14T22:55:18.785Z,76.10
2018-09-14T22:57:46.394Z,76.00
2018-09-14T23:00:19.572Z,74.90
2018-09-14T23:02:47.186Z,73.90
2018-09-14T23:05:14.831Z,72.50
2018-09-14T23:07:42.486Z,71.50
2018-09-14T23:10:10.050Z,70.60
2018-09-14T23:12:37.623Z,70.80
2018-09-14T23:15:05.332Z,70.20
2018-09-14T23:17:33.007Z,69.80
2018-09-14T23:20:00.685Z,70.00
2018-09-14T23:22:28.281Z,69.90
2018-09-14T23:24:55.874Z,69.70
2018-09-14T23:27:23.493Z,69.90
2018-09-14T23:29:51.047Z,69.90
2018-09-14T23:32:18.710Z,69.70
2018-09-14T23:34:46.296Z,70.00
2018-09-14T23:37:13.984Z,69.70
2018-09-14T23:39:41.610Z,70.00
2018-09-14T23:42:09.284Z,70.30
2018-09-14T23:44:36.942Z,69.80
2018-09-14T23:47:04.787Z,69.50
2018-09-14T23:49:32.431Z,69.80
2018-09-14T23:52:00.210Z,69.70
2018-09-14T23:54:27.922Z,70.00
2018-09-14T23:56:55.552Z,69.90
2018-09-14T23:59:23.154Z,70.00
